sensor_id;sensor_type;location;lat;lon;timestamp;P1;durP1;ratioP1;P2;durP2;ratioP2
77276;SDS011;66330;52.166;9.978;2023-04-26T00:02:22;4.47;;;2.90;;
77276;SDS011;66330;52.166;9.978;2023-04-26T00:04:51;2.73;;;2.50;;
77276;SDS011;66330;52.166;9.978;2023-04-26T00:07:19;4.70;;;2.83;;
77276;SDS011;66330;52.166;9.978;2023-04-26T00:09:47;3.20;;;2.90;;
77276;SDS011;66330;52.166;9.978;2023-04-26T00:12:13;4.00;;;2.90;;
77276;SDS011;66330;52.166;9.978;2023-04-26T00:14:38;3.30;;;2.70;;
77276;SDS011;66330;52.166;9.978;2023-04-26T00:17:04;6.20;;;2.80;;
77276;SDS011;66330;52.166;9.978;2023-04-26T00:19:29;5.53;;;2.93;;
77276;SDS011;66330;52.166;9.978;2023-04-26T00:21:56;6.40;;;3.50;;
77276;SDS011;66330;52.166;9.978;2023-04-26T00:24:21;3.80;;;2.50;;
77276;SDS011;66330;52.166;9.978;2023-04-26T00:26:47;4.93;;;3.13;;
77276;SDS011;66330;52.166;9.978;2023-04-26T00:29:12;4.30;;;3.53;;
77276;SDS011;66330;52.166;9.978;2023-04-26T00:31:38;6.40;;;3.00;;
77276;SDS011;66330;52.166;9.978;2023-04-26T00:34:03;7.07;;;3.03;;
77276;SDS011;66330;52.166;9.978;2023-04-26T00:36:29;6.40;;;2.90;;
77276;SDS011;66330;52.166;9.978;2023-04-26T00:38:56;5.37;;;2.90;;
77276;SDS011;66330;52.166;9.978;2023-04-26T00:41:21;6.57;;;3.40;;
77276;SDS011;66330;52.166;9.978;2023-04-26T00:43:48;8.77;;;3.50;;
77276;SDS011;66330;52.166;9.978;2023-04-26T00:46:13;7.03;;;2.57;;
77276;SDS011;66330;52.166;9.978;2023-04-26T00:48:39;8.30;;;2.70;;
77276;SDS011;66330;52.166;9.978;2023-04-26T00:51:06;4.17;;;2.77;;
77276;SDS011;66330;52.166;9.978;2023-04-26T00:53:32;9.67;;;3.23;;
77276;SDS011;66330;52.166;9.978;2023-04-26T00:55:59;7.97;;;3.87;;
77276;SDS011;66330;52.166;9.978;2023-04-26T00:58:25;5.70;;;2.70;;
77276;SDS011;66330;52.166;9.978;2023-04-26T01:00:50;5.40;;;3.47;;
77276;SDS011;66330;52.166;9.978;2023-04-26T01:03:16;7.10;;;3.57;;
77276;SDS011;66330;52.166;9.978;2023-04-26T01:05:42;5.47;;;2.93;;
77276;SDS011;66330;52.166;9.978;2023-04-26T01:08:09;11.80;;;2.90;;
77276;SDS011;66330;52.166;9.978;2023-04-26T01:10:35;3.83;;;3.07;;
77276;SDS011;66330;52.166;9.978;2023-04-26T01:13:01;5.53;;;2.60;;
77276;SDS011;66330;52.166;9.978;2023-04-26T01:15:28;3.20;;;2.57;;
77276;SDS011;66330;52.166;9.978;2023-04-26T01:17:55;6.70;;;3.00;;
77276;SDS011;66330;52.166;9.978;2023-04-26T01:20:21;3.50;;;2.80;;
77276;SDS011;66330;52.166;9.978;2023-04-26T01:22:47;9.87;;;3.03;;
77276;SDS011;66330;52.166;9.978;2023-04-26T01:25:12;5.20;;;2.73;;
77276;SDS011;66330;52.166;9.978;2023-04-26T01:27:40;4.83;;;2.40;;
77276;SDS011;66330;52.166;9.978;2023-04-26T01:30:05;3.97;;;2.60;;
77276;SDS011;66330;52.166;9.978;2023-04-26T01:32:32;3.57;;;2.60;;
77276;SDS011;66330;52.166;9.978;2023-04-26T01:34:58;5.67;;;2.80;;
77276;SDS011;66330;52.166;9.978;2023-04-26T01:37:24;6.33;;;2.60;;
77276;SDS011;66330;52.166;9.978;2023-04-26T01:39:50;3.70;;;2.70;;
77276;SDS011;66330;52.166;9.978;2023-04-26T01:42:16;7.43;;;2.83;;
77276;SDS011;66330;52.166;9.978;2023-04-26T01:44:42;4.00;;;2.50;;
77276;SDS011;66330;52.166;9.978;2023-04-26T01:47:07;3.23;;;2.33;;
77276;SDS011;66330;52.166;9.978;2023-04-26T01:49:33;6.77;;;3.43;;
77276;SDS011;66330;52.166;9.978;2023-04-26T01:52:00;9.53;;;3.53;;
77276;SDS011;66330;52.166;9.978;2023-04-26T01:54:26;4.50;;;2.63;;
77276;SDS011;66330;52.166;9.978;2023-04-26T01:56:51;5.97;;;3.53;;
77276;SDS011;66330;52.166;9.978;2023-04-26T01:59:17;4.60;;;2.73;;
77276;SDS011;66330;52.166;9.978;2023-04-26T02:01:43;6.50;;;3.60;;
77276;SDS011;66330;52.166;9.978;2023-04-26T02:04:08;7.30;;;2.97;;
77276;SDS011;66330;52.166;9.978;2023-04-26T02:06:34;7.57;;;2.87;;
77276;SDS011;66330;52.166;9.978;2023-04-26T02:09:00;5.10;;;2.70;;
77276;SDS011;66330;52.166;9.978;2023-04-26T02:11:26;3.20;;;2.83;;
77276;SDS011;66330;52.166;9.978;2023-04-26T02:13:51;7.30;;;3.83;;
77276;SDS011;66330;52.166;9.978;2023-04-26T02:16:17;9.37;;;3.40;;
77276;SDS011;66330;52.166;9.978;2023-04-26T02:18:43;8.77;;;3.40;;
77276;SDS011;66330;52.166;9.978;2023-04-26T02:21:12;6.27;;;3.30;;
77276;SDS011;66330;52.166;9.978;2023-04-26T02:23:37;6.23;;;3.40;;
77276;SDS011;66330;52.166;9.978;2023-04-26T02:26:03;6.47;;;3.67;;
77276;SDS011;66330;52.166;9.978;2023-04-26T02:28:29;6.87;;;2.70;;
77276;SDS011;66330;52.166;9.978;2023-04-26T02:30:55;3.53;;;2.70;;
77276;SDS011;66330;52.166;9.978;2023-04-26T02:33:21;5.50;;;3.10;;
77276;SDS011;66330;52.166;9.978;2023-04-26T02:35:47;7.57;;;3.63;;
77276;SDS011;66330;52.166;9.978;2023-04-26T02:38:12;6.90;;;3.67;;
77276;SDS011;66330;52.166;9.978;2023-04-26T02:40:38;7.77;;;3.73;;
77276;SDS011;66330;52.166;9.978;2023-04-26T02:43:03;7.70;;;3.90;;
77276;SDS011;66330;52.166;9.978;2023-04-26T02:45:29;4.87;;;2.90;;
77276;SDS011;66330;52.166;9.978;2023-04-26T02:47:55;8.77;;;3.23;;
77276;SDS011;66330;52.166;9.978;2023-04-26T02:50:20;5.70;;;3.70;;
77276;SDS011;66330;52.166;9.978;2023-04-26T02:52:46;6.40;;;3.30;;
77276;SDS011;66330;52.166;9.978;2023-04-26T02:55:11;8.17;;;3.20;;
77276;SDS011;66330;52.166;9.978;2023-04-26T02:57:38;7.83;;;3.30;;
77276;SDS011;66330;52.166;9.978;2023-04-26T03:00:03;5.77;;;2.90;;
77276;SDS011;66330;52.166;9.978;2023-04-26T03:02:29;9.23;;;5.20;;
77276;SDS011;66330;52.166;9.978;2023-04-26T03:04:55;4.30;;;3.00;;
77276;SDS011;66330;52.166;9.978;2023-04-26T03:07:21;7.10;;;3.77;;
77276;SDS011;66330;52.166;9.978;2023-04-26T03:09:46;5.07;;;3.40;;
77276;SDS011;66330;52.166;9.978;2023-04-26T03:12:12;5.50;;;3.37;;
77276;SDS011;66330;52.166;9.978;2023-04-26T03:14:37;4.97;;;3.23;;
77276;SDS011;66330;52.166;9.978;2023-04-26T03:17:03;3.37;;;2.83;;
77276;SDS011;66330;52.166;9.978;2023-04-26T03:19:29;5.50;;;3.90;;
77276;SDS011;66330;52.166;9.978;2023-04-26T03:21:54;8.43;;;3.63;;
77276;SDS011;66330;52.166;9.978;2023-04-26T03:24:20;3.43;;;3.00;;
77276;SDS011;66330;52.166;9.978;2023-04-26T03:26:46;5.97;;;3.67;;
77276;SDS011;66330;52.166;9.978;2023-04-26T03:29:12;9.60;;;3.77;;
77276;SDS011;66330;52.166;9.978;2023-04-26T03:31:38;5.90;;;2.87;;
77276;SDS011;66330;52.166;9.978;2023-04-26T03:34:03;7.17;;;4.00;;
77276;SDS011;66330;52.166;9.978;2023-04-26T03:36:29;6.20;;;3.37;;
77276;SDS011;66330;52.166;9.978;2023-04-26T03:38:55;6.03;;;4.00;;
77276;SDS011;66330;52.166;9.978;2023-04-26T03:41:20;9.83;;;6.50;;
77276;SDS011;66330;52.166;9.978;2023-04-26T03:43:47;4.63;;;3.80;;
77276;SDS011;66330;52.166;9.978;2023-04-26T03:46:13;6.93;;;4.23;;
77276;SDS011;66330;52.166;9.978;2023-04-26T03:48:38;5.70;;;4.10;;
77276;SDS011;66330;52.166;9.978;2023-04-26T03:51:04;7.53;;;3.90;;
77276;SDS011;66330;52.166;9.978;2023-04-26T03:53:30;6.33;;;3.60;;
77276;SDS011;66330;52.166;9.978;2023-04-26T03:55:56;6.67;;;3.40;;
77276;SDS011;66330;52.166;9.978;2023-04-26T03:58:22;12.50;;;3.70;;
77276;SDS011;66330;52.166;9.978;2023-04-26T04:00:48;5.83;;;3.23;;
77276;SDS011;66330;52.166;9.978;2023-04-26T04:03:14;5.77;;;3.83;;
77276;SDS011;66330;52.166;9.978;2023-04-26T04:05:40;6.33;;;4.67;;
77276;SDS011;66330;52.166;9.978;2023-04-26T04:08:05;4.67;;;3.50;;
77276;SDS011;66330;52.166;9.978;2023-04-26T04:10:31;4.33;;;3.93;;
77276;SDS011;66330;52.166;9.978;2023-04-26T04:12:56;4.70;;;3.37;;
77276;SDS011;66330;52.166;9.978;2023-04-26T04:15:22;5.40;;;4.17;;
77276;SDS011;66330;52.166;9.978;2023-04-26T04:17:47;9.77;;;4.70;;
77276;SDS011;66330;52.166;9.978;2023-04-26T04:20:13;6.60;;;4.20;;
77276;SDS011;66330;52.166;9.978;2023-04-26T04:22:38;5.27;;;4.53;;
77276;SDS011;66330;52.166;9.978;2023-04-26T04:25:05;5.13;;;3.97;;
77276;SDS011;66330;52.166;9.978;2023-04-26T04:27:31;6.17;;;4.30;;
77276;SDS011;66330;52.166;9.978;2023-04-26T04:29:57;8.50;;;4.77;;
77276;SDS011;66330;52.166;9.978;2023-04-26T04:32:22;7.00;;;4.07;;
77276;SDS011;66330;52.166;9.978;2023-04-26T04:34:48;8.63;;;5.40;;
77276;SDS011;66330;52.166;9.978;2023-04-26T04:37:15;7.80;;;4.60;;
77276;SDS011;66330;52.166;9.978;2023-04-26T04:39:42;3.93;;;3.43;;
77276;SDS011;66330;52.166;9.978;2023-04-26T04:42:07;8.03;;;4.30;;
77276;SDS011;66330;52.166;9.978;2023-04-26T04:44:34;6.50;;;4.20;;
77276;SDS011;66330;52.166;9.978;2023-04-26T04:47:00;6.23;;;4.37;;
77276;SDS011;66330;52.166;9.978;2023-04-26T04:49:26;4.63;;;3.83;;
77276;SDS011;66330;52.166;9.978;2023-04-26T04:51:52;6.10;;;3.93;;
77276;SDS011;66330;52.166;9.978;2023-04-26T04:54:18;9.23;;;4.00;;
77276;SDS011;66330;52.166;9.978;2023-04-26T04:56:44;7.33;;;4.10;;
77276;SDS011;66330;52.166;9.978;2023-04-26T04:59:10;7.30;;;4.00;;
77276;SDS011;66330;52.166;9.978;2023-04-26T05:01:36;7.47;;;3.83;;
77276;SDS011;66330;52.166;9.978;2023-04-26T05:04:02;8.03;;;4.17;;
77276;SDS011;66330;52.166;9.978;2023-04-26T05:06:28;7.73;;;4.37;;
77276;SDS011;66330;52.166;9.978;2023-04-26T05:08:56;9.43;;;3.53;;
77276;SDS011;66330;52.166;9.978;2023-04-26T05:11:22;6.60;;;3.73;;
77276;SDS011;66330;52.166;9.978;2023-04-26T05:13:48;6.23;;;3.77;;
77276;SDS011;66330;52.166;9.978;2023-04-26T05:16:13;5.17;;;3.60;;
77276;SDS011;66330;52.166;9.978;2023-04-26T05:18:39;8.37;;;4.13;;
77276;SDS011;66330;52.166;9.978;2023-04-26T05:21:05;7.93;;;5.30;;
77276;SDS011;66330;52.166;9.978;2023-04-26T05:23:31;4.40;;;3.93;;
77276;SDS011;66330;52.166;9.978;2023-04-26T05:26:00;4.93;;;3.80;;
77276;SDS011;66330;52.166;9.978;2023-04-26T05:28:28;8.03;;;3.40;;
77276;SDS011;66330;52.166;9.978;2023-04-26T05:30:54;6.60;;;4.00;;
77276;SDS011;66330;52.166;9.978;2023-04-26T05:33:20;5.30;;;3.57;;
77276;SDS011;66330;52.166;9.978;2023-04-26T05:35:45;4.70;;;3.87;;
77276;SDS011;66330;52.166;9.978;2023-04-26T05:38:11;6.50;;;3.50;;
77276;SDS011;66330;52.166;9.978;2023-04-26T05:40:36;7.03;;;4.30;;
77276;SDS011;66330;52.166;9.978;2023-04-26T05:43:02;6.47;;;3.60;;
77276;SDS011;66330;52.166;9.978;2023-04-26T05:45:28;6.77;;;3.10;;
77276;SDS011;66330;52.166;9.978;2023-04-26T05:47:53;5.80;;;4.00;;
77276;SDS011;66330;52.166;9.978;2023-04-26T05:50:19;9.90;;;3.90;;
77276;SDS011;66330;52.166;9.978;2023-04-26T05:52:45;6.67;;;4.20;;
77276;SDS011;66330;52.166;9.978;2023-04-26T05:55:10;5.83;;;3.60;;
77276;SDS011;66330;52.166;9.978;2023-04-26T05:57:37;7.50;;;3.87;;
77276;SDS011;66330;52.166;9.978;2023-04-26T06:00:03;5.40;;;3.63;;
77276;SDS011;66330;52.166;9.978;2023-04-26T06:02:29;6.90;;;3.83;;
77276;SDS011;66330;52.166;9.978;2023-04-26T06:04:55;7.20;;;3.77;;
77276;SDS011;66330;52.166;9.978;2023-04-26T06:07:21;16.40;;;3.87;;
77276;SDS011;66330;52.166;9.978;2023-04-26T06:09:46;6.83;;;4.63;;
77276;SDS011;66330;52.166;9.978;2023-04-26T06:12:12;5.47;;;4.20;;
77276;SDS011;66330;52.166;9.978;2023-04-26T06:14:37;6.00;;;4.30;;
77276;SDS011;66330;52.166;9.978;2023-04-26T06:17:03;7.47;;;4.60;;
77276;SDS011;66330;52.166;9.978;2023-04-26T06:19:28;13.50;;;4.43;;
77276;SDS011;66330;52.166;9.978;2023-04-26T06:21:54;4.60;;;4.10;;
77276;SDS011;66330;52.166;9.978;2023-04-26T06:24:21;6.47;;;5.43;;
77276;SDS011;66330;52.166;9.978;2023-04-26T06:26:47;7.93;;;4.87;;
77276;SDS011;66330;52.166;9.978;2023-04-26T06:29:13;6.53;;;4.60;;
77276;SDS011;66330;52.166;9.978;2023-04-26T06:31:39;10.03;;;4.70;;
77276;SDS011;66330;52.166;9.978;2023-04-26T06:34:04;7.37;;;4.50;;
77276;SDS011;66330;52.166;9.978;2023-04-26T06:36:30;6.47;;;4.17;;
77276;SDS011;66330;52.166;9.978;2023-04-26T06:38:56;7.07;;;3.60;;
77276;SDS011;66330;52.166;9.978;2023-04-26T06:41:22;6.10;;;4.20;;
77276;SDS011;66330;52.166;9.978;2023-04-26T06:43:47;5.63;;;4.10;;
77276;SDS011;66330;52.166;9.978;2023-04-26T06:46:13;7.70;;;3.60;;
77276;SDS011;66330;52.166;9.978;2023-04-26T06:48:38;7.70;;;3.93;;
77276;SDS011;66330;52.166;9.978;2023-04-26T06:51:07;8.17;;;3.90;;
77276;SDS011;66330;52.166;9.978;2023-04-26T06:53:34;8.37;;;4.00;;
77276;SDS011;66330;52.166;9.978;2023-04-26T06:56:00;6.23;;;3.83;;
77276;SDS011;66330;52.166;9.978;2023-04-26T06:58:25;6.37;;;4.13;;
77276;SDS011;66330;52.166;9.978;2023-04-26T07:00:51;7.97;;;4.10;;
77276;SDS011;66330;52.166;9.978;2023-04-26T07:03:16;6.40;;;3.60;;
77276;SDS011;66330;52.166;9.978;2023-04-26T07:05:42;5.77;;;4.20;;
77276;SDS011;66330;52.166;9.978;2023-04-26T07:08:07;7.10;;;3.33;;
77276;SDS011;66330;52.166;9.978;2023-04-26T07:10:33;7.30;;;3.40;;
77276;SDS011;66330;52.166;9.978;2023-04-26T07:12:59;5.83;;;3.13;;
77276;SDS011;66330;52.166;9.978;2023-04-26T07:15:25;4.93;;;3.43;;
77276;SDS011;66330;52.166;9.978;2023-04-26T07:17:50;5.10;;;3.37;;
77276;SDS011;66330;52.166;9.978;2023-04-26T07:20:16;4.60;;;2.60;;
77276;SDS011;66330;52.166;9.978;2023-04-26T07:22:45;4.57;;;2.50;;
77276;SDS011;66330;52.166;9.978;2023-04-26T07:25:11;6.80;;;3.00;;
77276;SDS011;66330;52.166;9.978;2023-04-26T07:27:36;5.67;;;3.27;;
77276;SDS011;66330;52.166;9.978;2023-04-26T07:30:02;4.43;;;3.07;;
77276;SDS011;66330;52.166;9.978;2023-04-26T07:32:29;4.80;;;2.60;;
77276;SDS011;66330;52.166;9.978;2023-04-26T07:34:54;5.37;;;2.97;;
77276;SDS011;66330;52.166;9.978;2023-04-26T07:37:20;5.20;;;2.50;;
77276;SDS011;66330;52.166;9.978;2023-04-26T07:39:46;5.93;;;3.27;;
77276;SDS011;66330;52.166;9.978;2023-04-26T07:42:11;6.00;;;3.93;;
77276;SDS011;66330;52.166;9.978;2023-04-26T07:44:37;4.63;;;3.10;;
77276;SDS011;66330;52.166;9.978;2023-04-26T07:47:02;6.50;;;3.70;;
77276;SDS011;66330;52.166;9.978;2023-04-26T07:49:28;8.87;;;3.50;;
77276;SDS011;66330;52.166;9.978;2023-04-26T07:51:54;5.70;;;3.47;;
77276;SDS011;66330;52.166;9.978;2023-04-26T07:54:22;3.40;;;2.67;;
77276;SDS011;66330;52.166;9.978;2023-04-26T07:56:47;6.73;;;3.40;;
77276;SDS011;66330;52.166;9.978;2023-04-26T07:59:13;7.93;;;3.83;;
77276;SDS011;66330;52.166;9.978;2023-04-26T08:01:38;6.63;;;3.50;;
77276;SDS011;66330;52.166;9.978;2023-04-26T08:04:04;3.60;;;2.90;;
77276;SDS011;66330;52.166;9.978;2023-04-26T08:06:30;5.93;;;3.00;;
77276;SDS011;66330;52.166;9.978;2023-04-26T08:08:55;5.13;;;3.00;;
77276;SDS011;66330;52.166;9.978;2023-04-26T08:11:21;7.17;;;4.17;;
77276;SDS011;66330;52.166;9.978;2023-04-26T08:13:46;8.00;;;4.17;;
77276;SDS011;66330;52.166;9.978;2023-04-26T08:16:12;6.00;;;3.40;;
77276;SDS011;66330;52.166;9.978;2023-04-26T08:18:37;6.37;;;3.27;;
77276;SDS011;66330;52.166;9.978;2023-04-26T08:21:03;5.80;;;3.67;;
77276;SDS011;66330;52.166;9.978;2023-04-26T08:23:31;4.27;;;3.23;;
77276;SDS011;66330;52.166;9.978;2023-04-26T08:25:59;7.40;;;2.90;;
77276;SDS011;66330;52.166;9.978;2023-04-26T08:28:25;9.47;;;5.30;;
77276;SDS011;66330;52.166;9.978;2023-04-26T08:30:50;4.10;;;3.23;;
77276;SDS011;66330;52.166;9.978;2023-04-26T08:33:16;11.70;;;4.37;;
77276;SDS011;66330;52.166;9.978;2023-04-26T08:35:42;7.47;;;3.10;;
77276;SDS011;66330;52.166;9.978;2023-04-26T08:38:08;7.80;;;3.93;;
77276;SDS011;66330;52.166;9.978;2023-04-26T08:40:34;3.67;;;2.40;;
77276;SDS011;66330;52.166;9.978;2023-04-26T08:43:00;4.80;;;3.10;;
77276;SDS011;66330;52.166;9.978;2023-04-26T08:45:26;5.90;;;3.90;;
77276;SDS011;66330;52.166;9.978;2023-04-26T08:47:52;5.47;;;3.40;;
77276;SDS011;66330;52.166;9.978;2023-04-26T08:50:21;5.70;;;3.00;;
77276;SDS011;66330;52.166;9.978;2023-04-26T08:52:48;3.50;;;2.60;;
77276;SDS011;66330;52.166;9.978;2023-04-26T08:55:15;3.57;;;2.50;;
77276;SDS011;66330;52.166;9.978;2023-04-26T08:57:47;2.93;;;2.63;;
77276;SDS011;66330;52.166;9.978;2023-04-26T09:00:14;4.50;;;3.03;;
77276;SDS011;66330;52.166;9.978;2023-04-26T09:02:40;3.87;;;3.20;;
77276;SDS011;66330;52.166;9.978;2023-04-26T09:05:10;5.13;;;3.00;;
77276;SDS011;66330;52.166;9.978;2023-04-26T09:07:41;4.87;;;3.33;;
77276;SDS011;66330;52.166;9.978;2023-04-26T09:10:11;4.57;;;2.90;;
77276;SDS011;66330;52.166;9.978;2023-04-26T09:12:38;4.30;;;2.93;;
77276;SDS011;66330;52.166;9.978;2023-04-26T09:15:07;4.87;;;3.30;;
77276;SDS011;66330;52.166;9.978;2023-04-26T09:17:34;4.10;;;2.13;;
77276;SDS011;66330;52.166;9.978;2023-04-26T09:20:15;3.83;;;2.93;;
77276;SDS011;66330;52.166;9.978;2023-04-26T09:22:50;7.27;;;2.43;;
77276;SDS011;66330;52.166;9.978;2023-04-26T09:25:18;5.80;;;3.13;;
77276;SDS011;66330;52.166;9.978;2023-04-26T09:27:52;5.47;;;3.10;;
77276;SDS011;66330;52.166;9.978;2023-04-26T09:30:17;5.40;;;3.33;;
77276;SDS011;66330;52.166;9.978;2023-04-26T09:33:00;5.73;;;3.40;;
77276;SDS011;66330;52.166;9.978;2023-04-26T09:35:41;3.37;;;2.60;;
77276;SDS011;66330;52.166;9.978;2023-04-26T09:38:11;8.63;;;4.47;;
77276;SDS011;66330;52.166;9.978;2023-04-26T09:40:43;4.70;;;3.43;;
77276;SDS011;66330;52.166;9.978;2023-04-26T09:45:53;3.20;;;2.20;;
77276;SDS011;66330;52.166;9.978;2023-04-26T09:50:57;2.77;;;2.30;;
77276;SDS011;66330;52.166;9.978;2023-04-26T09:53:36;3.00;;;2.00;;
77276;SDS011;66330;52.166;9.978;2023-04-26T09:56:07;4.53;;;2.80;;
77276;SDS011;66330;52.166;9.978;2023-04-26T09:58:38;5.77;;;2.53;;
77276;SDS011;66330;52.166;9.978;2023-04-26T10:01:22;5.27;;;2.50;;
77276;SDS011;66330;52.166;9.978;2023-04-26T10:03:48;5.70;;;2.07;;
77276;SDS011;66330;52.166;9.978;2023-04-26T10:06:14;3.53;;;2.43;;
77276;SDS011;66330;52.166;9.978;2023-04-26T10:08:40;3.03;;;2.73;;
77276;SDS011;66330;52.166;9.978;2023-04-26T10:11:06;2.30;;;2.10;;
77276;SDS011;66330;52.166;9.978;2023-04-26T10:13:34;4.40;;;2.50;;
77276;SDS011;66330;52.166;9.978;2023-04-26T10:16:00;4.07;;;2.87;;
77276;SDS011;66330;52.166;9.978;2023-04-26T10:18:26;4.60;;;2.57;;
77276;SDS011;66330;52.166;9.978;2023-04-26T10:20:52;4.80;;;2.63;;
77276;SDS011;66330;52.166;9.978;2023-04-26T10:23:22;6.20;;;3.37;;
77276;SDS011;66330;52.166;9.978;2023-04-26T10:25:51;6.07;;;2.50;;
77276;SDS011;66330;52.166;9.978;2023-04-26T10:28:52;4.63;;;2.90;;
77276;SDS011;66330;52.166;9.978;2023-04-26T10:31:03;4.17;;;3.00;;
77276;SDS011;66330;52.166;9.978;2023-04-26T10:33:30;6.83;;;3.13;;
77276;SDS011;66330;52.166;9.978;2023-04-26T10:38:28;4.47;;;2.60;;
77276;SDS011;66330;52.166;9.978;2023-04-26T10:40:53;4.93;;;3.03;;
77276;SDS011;66330;52.166;9.978;2023-04-26T10:43:26;4.27;;;2.93;;
77276;SDS011;66330;52.166;9.978;2023-04-26T10:45:52;5.83;;;3.00;;
77276;SDS011;66330;52.166;9.978;2023-04-26T10:48:21;3.40;;;2.77;;
77276;SDS011;66330;52.166;9.978;2023-04-26T10:58:47;4.20;;;2.50;;
77276;SDS011;66330;52.166;9.978;2023-04-26T11:06:23;5.67;;;2.83;;
77276;SDS011;66330;52.166;9.978;2023-04-26T11:08:49;2.53;;;2.30;;
77276;SDS011;66330;52.166;9.978;2023-04-26T11:11:15;3.80;;;2.60;;
77276;SDS011;66330;52.166;9.978;2023-04-26T11:13:43;3.63;;;2.77;;
77276;SDS011;66330;52.166;9.978;2023-04-26T11:16:11;4.03;;;2.50;;
77276;SDS011;66330;52.166;9.978;2023-04-26T11:18:41;3.03;;;2.47;;
77276;SDS011;66330;52.166;9.978;2023-04-26T11:21:09;3.40;;;2.50;;
77276;SDS011;66330;52.166;9.978;2023-04-26T11:23:35;3.10;;;2.23;;
77276;SDS011;66330;52.166;9.978;2023-04-26T11:26:01;3.73;;;3.40;;
77276;SDS011;66330;52.166;9.978;2023-04-26T11:28:29;5.33;;;2.80;;
77276;SDS011;66330;52.166;9.978;2023-04-26T11:30:55;3.00;;;2.40;;
77276;SDS011;66330;52.166;9.978;2023-04-26T11:33:21;2.57;;;2.37;;
77276;SDS011;66330;52.166;9.978;2023-04-26T11:35:50;2.10;;;1.90;;
77276;SDS011;66330;52.166;9.978;2023-04-26T11:38:17;2.40;;;2.20;;
77276;SDS011;66330;52.166;9.978;2023-04-26T11:40:52;3.20;;;2.80;;
77276;SDS011;66330;52.166;9.978;2023-04-26T11:43:42;2.27;;;2.07;;
77276;SDS011;66330;52.166;9.978;2023-04-26T11:46:08;6.10;;;3.00;;
77276;SDS011;66330;52.166;9.978;2023-04-26T11:48:34;3.80;;;3.40;;
77276;SDS011;66330;52.166;9.978;2023-04-26T11:51:02;5.03;;;4.53;;
77276;SDS011;66330;52.166;9.978;2023-04-26T11:53:35;5.30;;;4.30;;
77276;SDS011;66330;52.166;9.978;2023-04-26T11:56:01;4.80;;;4.40;;
77276;SDS011;66330;52.166;9.978;2023-04-26T11:58:27;5.30;;;4.30;;
77276;SDS011;66330;52.166;9.978;2023-04-26T12:00:59;4.63;;;4.10;;
77276;SDS011;66330;52.166;9.978;2023-04-26T12:03:32;6.33;;;4.67;;
77276;SDS011;66330;52.166;9.978;2023-04-26T12:06:02;4.67;;;4.17;;
77276;SDS011;66330;52.166;9.978;2023-04-26T12:08:28;5.20;;;3.47;;
77276;SDS011;66330;52.166;9.978;2023-04-26T12:13:22;4.67;;;4.27;;
77276;SDS011;66330;52.166;9.978;2023-04-26T12:15:49;3.60;;;3.30;;
77276;SDS011;66330;52.166;9.978;2023-04-26T12:18:16;2.80;;;2.60;;
77276;SDS011;66330;52.166;9.978;2023-04-26T12:20:42;3.13;;;2.83;;
77276;SDS011;66330;52.166;9.978;2023-04-26T12:23:09;5.10;;;2.67;;
77276;SDS011;66330;52.166;9.978;2023-04-26T12:25:38;3.60;;;3.27;;
77276;SDS011;66330;52.166;9.978;2023-04-26T12:28:06;2.70;;;2.50;;
77276;SDS011;66330;52.166;9.978;2023-04-26T12:30:36;3.67;;;2.77;;
77276;SDS011;66330;52.166;9.978;2023-04-26T12:33:02;2.80;;;2.40;;
77276;SDS011;66330;52.166;9.978;2023-04-26T12:35:28;2.83;;;2.63;;
77276;SDS011;66330;52.166;9.978;2023-04-26T12:37:54;2.77;;;2.47;;
77276;SDS011;66330;52.166;9.978;2023-04-26T12:40:20;2.13;;;1.90;;
77276;SDS011;66330;52.166;9.978;2023-04-26T12:42:47;4.93;;;2.57;;
77276;SDS011;66330;52.166;9.978;2023-04-26T12:45:13;2.87;;;2.50;;
77276;SDS011;66330;52.166;9.978;2023-04-26T12:47:39;4.10;;;2.87;;
77276;SDS011;66330;52.166;9.978;2023-04-26T12:50:05;4.90;;;2.80;;
77276;SDS011;66330;52.166;9.978;2023-04-26T12:52:31;3.37;;;2.67;;
77276;SDS011;66330;52.166;9.978;2023-04-26T12:54:57;3.13;;;2.83;;
77276;SDS011;66330;52.166;9.978;2023-04-26T12:57:23;2.70;;;2.17;;
77276;SDS011;66330;52.166;9.978;2023-04-26T12:59:48;2.70;;;2.20;;
77276;SDS011;66330;52.166;9.978;2023-04-26T13:02:14;2.90;;;2.50;;
77276;SDS011;66330;52.166;9.978;2023-04-26T13:04:40;5.30;;;2.30;;
77276;SDS011;66330;52.166;9.978;2023-04-26T13:07:05;3.37;;;2.53;;
77276;SDS011;66330;52.166;9.978;2023-04-26T13:09:31;3.63;;;2.60;;
77276;SDS011;66330;52.166;9.978;2023-04-26T13:11:57;2.43;;;2.17;;
77276;SDS011;66330;52.166;9.978;2023-04-26T13:14:23;2.40;;;2.20;;
77276;SDS011;66330;52.166;9.978;2023-04-26T13:16:49;2.63;;;2.43;;
77276;SDS011;66330;52.166;9.978;2023-04-26T13:19:16;3.20;;;2.83;;
77276;SDS011;66330;52.166;9.978;2023-04-26T13:21:41;3.60;;;2.33;;
77276;SDS011;66330;52.166;9.978;2023-04-26T13:24:07;4.10;;;3.17;;
77276;SDS011;66330;52.166;9.978;2023-04-26T13:26:32;3.20;;;2.60;;
77276;SDS011;66330;52.166;9.978;2023-04-26T13:28:58;2.30;;;2.10;;
77276;SDS011;66330;52.166;9.978;2023-04-26T13:31:24;2.90;;;2.60;;
77276;SDS011;66330;52.166;9.978;2023-04-26T13:33:49;3.30;;;2.60;;
77276;SDS011;66330;52.166;9.978;2023-04-26T13:36:15;3.03;;;2.77;;
77276;SDS011;66330;52.166;9.978;2023-04-26T13:38:41;2.43;;;2.20;;
77276;SDS011;66330;52.166;9.978;2023-04-26T13:41:08;2.40;;;2.20;;
77276;SDS011;66330;52.166;9.978;2023-04-26T13:43:35;3.47;;;2.33;;
77276;SDS011;66330;52.166;9.978;2023-04-26T13:46:00;3.10;;;2.50;;
77276;SDS011;66330;52.166;9.978;2023-04-26T13:48:26;3.40;;;2.43;;
77276;SDS011;66330;52.166;9.978;2023-04-26T13:50:52;3.10;;;2.80;;
77276;SDS011;66330;52.166;9.978;2023-04-26T13:53:17;2.80;;;2.60;;
77276;SDS011;66330;52.166;9.978;2023-04-26T13:55:44;3.70;;;2.80;;
77276;SDS011;66330;52.166;9.978;2023-04-26T13:58:10;3.10;;;2.90;;
77276;SDS011;66330;52.166;9.978;2023-04-26T14:00:35;2.80;;;2.50;;
77276;SDS011;66330;52.166;9.978;2023-04-26T14:03:01;3.13;;;2.70;;
77276;SDS011;66330;52.166;9.978;2023-04-26T14:05:26;4.73;;;2.90;;
77276;SDS011;66330;52.166;9.978;2023-04-26T14:07:52;3.10;;;2.57;;
77276;SDS011;66330;52.166;9.978;2023-04-26T14:10:18;3.30;;;3.00;;
77276;SDS011;66330;52.166;9.978;2023-04-26T14:12:44;3.30;;;3.00;;
77276;SDS011;66330;52.166;9.978;2023-04-26T14:15:10;5.37;;;2.43;;
77276;SDS011;66330;52.166;9.978;2023-04-26T14:17:36;5.50;;;3.30;;
77276;SDS011;66330;52.166;9.978;2023-04-26T14:20:02;4.37;;;3.00;;
77276;SDS011;66330;52.166;9.978;2023-04-26T14:22:28;3.37;;;3.07;;
77276;SDS011;66330;52.166;9.978;2023-04-26T14:24:53;3.47;;;3.10;;
77276;SDS011;66330;52.166;9.978;2023-04-26T14:27:19;5.03;;;4.50;;
77276;SDS011;66330;52.166;9.978;2023-04-26T14:29:44;5.80;;;3.13;;
77276;SDS011;66330;52.166;9.978;2023-04-26T14:32:10;3.20;;;2.90;;
77276;SDS011;66330;52.166;9.978;2023-04-26T14:34:36;3.97;;;2.70;;
77276;SDS011;66330;52.166;9.978;2023-04-26T14:37:03;5.50;;;3.40;;
77276;SDS011;66330;52.166;9.978;2023-04-26T14:39:32;4.87;;;3.40;;
77276;SDS011;66330;52.166;9.978;2023-04-26T14:41:57;6.37;;;3.27;;
77276;SDS011;66330;52.166;9.978;2023-04-26T14:44:23;7.70;;;2.80;;
77276;SDS011;66330;52.166;9.978;2023-04-26T14:46:49;4.20;;;2.77;;
77276;SDS011;66330;52.166;9.978;2023-04-26T14:49:15;2.97;;;2.30;;
77276;SDS011;66330;52.166;9.978;2023-04-26T14:51:40;5.40;;;3.30;;
77276;SDS011;66330;52.166;9.978;2023-04-26T14:54:06;6.27;;;3.20;;
77276;SDS011;66330;52.166;9.978;2023-04-26T14:56:35;4.20;;;3.70;;
77276;SDS011;66330;52.166;9.978;2023-04-26T14:59:01;3.30;;;3.00;;
77276;SDS011;66330;52.166;9.978;2023-04-26T15:01:27;3.07;;;2.77;;
77276;SDS011;66330;52.166;9.978;2023-04-26T15:03:53;3.23;;;2.93;;
77276;SDS011;66330;52.166;9.978;2023-04-26T15:06:19;3.30;;;3.00;;
77276;SDS011;66330;52.166;9.978;2023-04-26T15:08:45;3.10;;;2.80;;